sensor_id;sensor_type;location;lat;lon;timestamp;P1;durP1;ratioP1;P2;durP2;ratioP2
13683;SDS011;6914;53.552;9.908;2023-08-08T00:00:36;8.70;;;2.73;;
13683;SDS011;6914;53.552;9.908;2023-08-08T00:03:04;2.03;;;1.87;;
13683;SDS011;6914;53.552;9.908;2023-08-08T00:05:31;11.17;;;2.70;;
13683;SDS011;6914;53.552;9.908;2023-08-08T00:07:58;8.10;;;2.47;;
13683;SDS011;6914;53.552;9.908;2023-08-08T00:10:26;5.73;;;2.90;;
13683;SDS011;6914;53.552;9.908;2023-08-08T00:12:54;8.43;;;3.40;;
13683;SDS011;6914;53.552;9.908;2023-08-08T00:15:21;4.63;;;2.60;;
13683;SDS011;6914;53.552;9.908;2023-08-08T00:17:48;4.97;;;3.20;;
13683;SDS011;6914;53.552;9.908;2023-08-08T00:20:15;14.50;;;3.90;;
13683;SDS011;6914;53.552;9.908;2023-08-08T00:22:43;4.10;;;2.23;;
13683;SDS011;6914;53.552;9.908;2023-08-08T00:25:10;10.50;;;3.70;;
13683;SDS011;6914;53.552;9.908;2023-08-08T00:27:37;14.07;;;3.00;;
13683;SDS011;6914;53.552;9.908;2023-08-08T00:30:12;11.07;;;3.53;;
13683;SDS011;6914;53.552;9.908;2023-08-08T00:32:55;12.37;;;3.50;;
13683;SDS011;6914;53.552;9.908;2023-08-08T00:35:25;7.73;;;3.47;;
13683;SDS011;6914;53.552;9.908;2023-08-08T00:38:08;6.47;;;3.30;;
13683;SDS011;6914;53.552;9.908;2023-08-08T00:40:48;12.43;;;3.83;;
13683;SDS011;6914;53.552;9.908;2023-08-08T00:43:16;15.30;;;2.97;;
13683;SDS011;6914;53.552;9.908;2023-08-08T00:45:45;14.60;;;3.43;;
13683;SDS011;6914;53.552;9.908;2023-08-08T00:48:12;8.73;;;3.20;;
13683;SDS011;6914;53.552;9.908;2023-08-08T00:50:42;4.20;;;2.87;;
13683;SDS011;6914;53.552;9.908;2023-08-08T00:53:09;3.87;;;2.63;;
13683;SDS011;6914;53.552;9.908;2023-08-08T00:55:37;6.23;;;3.00;;
13683;SDS011;6914;53.552;9.908;2023-08-08T00:58:06;6.27;;;4.20;;
13683;SDS011;6914;53.552;9.908;2023-08-08T01:00:34;7.50;;;3.57;;
13683;SDS011;6914;53.552;9.908;2023-08-08T01:03:05;14.60;;;3.83;;
13683;SDS011;6914;53.552;9.908;2023-08-08T01:05:35;4.90;;;3.20;;
13683;SDS011;6914;53.552;9.908;2023-08-08T01:08:05;11.53;;;3.80;;
13683;SDS011;6914;53.552;9.908;2023-08-08T01:10:35;9.87;;;2.63;;
13683;SDS011;6914;53.552;9.908;2023-08-08T01:13:13;3.50;;;2.53;;
13683;SDS011;6914;53.552;9.908;2023-08-08T01:15:42;4.30;;;2.90;;
13683;SDS011;6914;53.552;9.908;2023-08-08T01:18:11;5.27;;;3.40;;
13683;SDS011;6914;53.552;9.908;2023-08-08T01:20:39;8.40;;;3.30;;
13683;SDS011;6914;53.552;9.908;2023-08-08T01:23:09;9.80;;;3.33;;
13683;SDS011;6914;53.552;9.908;2023-08-08T01:25:39;7.43;;;2.87;;
13683;SDS011;6914;53.552;9.908;2023-08-08T01:28:07;5.63;;;2.53;;
13683;SDS011;6914;53.552;9.908;2023-08-08T01:30:34;4.90;;;2.60;;
13683;SDS011;6914;53.552;9.908;2023-08-08T01:33:02;7.30;;;3.53;;
13683;SDS011;6914;53.552;9.908;2023-08-08T01:35:32;8.40;;;3.00;;
13683;SDS011;6914;53.552;9.908;2023-08-08T01:38:03;8.27;;;2.90;;
13683;SDS011;6914;53.552;9.908;2023-08-08T01:40:31;10.10;;;2.00;;
13683;SDS011;6914;53.552;9.908;2023-08-08T01:43:00;5.93;;;2.73;;
13683;SDS011;6914;53.552;9.908;2023-08-08T01:45:29;11.67;;;3.03;;
13683;SDS011;6914;53.552;9.908;2023-08-08T01:47:56;9.83;;;3.43;;
13683;SDS011;6914;53.552;9.908;2023-08-08T01:50:23;14.00;;;3.20;;
13683;SDS011;6914;53.552;9.908;2023-08-08T01:52:50;6.27;;;2.97;;
13683;SDS011;6914;53.552;9.908;2023-08-08T01:55:17;5.40;;;2.83;;
13683;SDS011;6914;53.552;9.908;2023-08-08T01:57:45;2.50;;;1.73;;
13683;SDS011;6914;53.552;9.908;2023-08-08T02:00:13;9.17;;;2.50;;
13683;SDS011;6914;53.552;9.908;2023-08-08T02:02:40;10.47;;;3.03;;
13683;SDS011;6914;53.552;9.908;2023-08-08T02:05:08;4.93;;;2.10;;
13683;SDS011;6914;53.552;9.908;2023-08-08T02:07:35;9.73;;;2.30;;
13683;SDS011;6914;53.552;9.908;2023-08-08T02:10:02;2.73;;;2.47;;
13683;SDS011;6914;53.552;9.908;2023-08-08T02:12:29;10.20;;;2.70;;
13683;SDS011;6914;53.552;9.908;2023-08-08T02:14:56;1.77;;;1.67;;
13683;SDS011;6914;53.552;9.908;2023-08-08T02:17:25;9.37;;;2.27;;
13683;SDS011;6914;53.552;9.908;2023-08-08T02:19:52;3.00;;;1.70;;
13683;SDS011;6914;53.552;9.908;2023-08-08T02:22:20;5.00;;;1.40;;
13683;SDS011;6914;53.552;9.908;2023-08-08T02:24:47;4.83;;;2.13;;
13683;SDS011;6914;53.552;9.908;2023-08-08T02:27:14;3.83;;;2.13;;
13683;SDS011;6914;53.552;9.908;2023-08-08T02:29:41;2.70;;;1.90;;
13683;SDS011;6914;53.552;9.908;2023-08-08T02:32:08;9.27;;;1.90;;
13683;SDS011;6914;53.552;9.908;2023-08-08T02:34:37;2.63;;;2.20;;
13683;SDS011;6914;53.552;9.908;2023-08-08T02:37:04;2.83;;;1.67;;
13683;SDS011;6914;53.552;9.908;2023-08-08T02:39:32;3.90;;;1.90;;
13683;SDS011;6914;53.552;9.908;2023-08-08T02:41:59;2.70;;;1.57;;
13683;SDS011;6914;53.552;9.908;2023-08-08T02:44:27;8.70;;;2.30;;
13683;SDS011;6914;53.552;9.908;2023-08-08T02:46:54;5.73;;;1.70;;
13683;SDS011;6914;53.552;9.908;2023-08-08T02:49:21;2.90;;;1.97;;
13683;SDS011;6914;53.552;9.908;2023-08-08T02:51:50;3.97;;;2.00;;
13683;SDS011;6914;53.552;9.908;2023-08-08T02:54:17;3.03;;;1.77;;
13683;SDS011;6914;53.552;9.908;2023-08-08T02:56:44;2.43;;;1.90;;
13683;SDS011;6914;53.552;9.908;2023-08-08T02:59:11;5.33;;;2.07;;
13683;SDS011;6914;53.552;9.908;2023-08-08T03:01:38;6.00;;;1.70;;
13683;SDS011;6914;53.552;9.908;2023-08-08T03:04:06;4.13;;;1.90;;
13683;SDS011;6914;53.552;9.908;2023-08-08T03:06:33;5.07;;;2.03;;
13683;SDS011;6914;53.552;9.908;2023-08-08T03:09:02;6.07;;;2.10;;
13683;SDS011;6914;53.552;9.908;2023-08-08T03:11:30;6.90;;;1.87;;
13683;SDS011;6914;53.552;9.908;2023-08-08T03:13:57;3.47;;;2.13;;
13683;SDS011;6914;53.552;9.908;2023-08-08T03:16:24;5.40;;;2.07;;
13683;SDS011;6914;53.552;9.908;2023-08-08T03:18:51;6.63;;;2.37;;
13683;SDS011;6914;53.552;9.908;2023-08-08T03:21:18;6.80;;;1.90;;
13683;SDS011;6914;53.552;9.908;2023-08-08T03:23:45;7.60;;;1.97;;
13683;SDS011;6914;53.552;9.908;2023-08-08T03:26:14;4.27;;;1.73;;
13683;SDS011;6914;53.552;9.908;2023-08-08T03:28:41;4.40;;;2.20;;
13683;SDS011;6914;53.552;9.908;2023-08-08T03:31:09;4.60;;;2.10;;
13683;SDS011;6914;53.552;9.908;2023-08-08T03:33:36;3.63;;;1.63;;
13683;SDS011;6914;53.552;9.908;2023-08-08T03:36:03;5.53;;;2.23;;
13683;SDS011;6914;53.552;9.908;2023-08-08T03:38:30;4.30;;;1.60;;
13683;SDS011;6914;53.552;9.908;2023-08-08T03:40:57;4.23;;;1.90;;
13683;SDS011;6914;53.552;9.908;2023-08-08T03:43:26;8.07;;;2.13;;
13683;SDS011;6914;53.552;9.908;2023-08-08T03:45:53;4.67;;;2.20;;
13683;SDS011;6914;53.552;9.908;2023-08-08T03:48:20;2.90;;;2.03;;
13683;SDS011;6914;53.552;9.908;2023-08-08T03:50:48;4.87;;;2.13;;
13683;SDS011;6914;53.552;9.908;2023-08-08T03:53:15;6.33;;;2.67;;
13683;SDS011;6914;53.552;9.908;2023-08-08T03:55:42;2.20;;;2.00;;
13683;SDS011;6914;53.552;9.908;2023-08-08T03:58:09;4.80;;;1.90;;
13683;SDS011;6914;53.552;9.908;2023-08-08T04:00:38;9.17;;;2.13;;
13683;SDS011;6914;53.552;9.908;2023-08-08T04:03:11;3.63;;;2.37;;
13683;SDS011;6914;53.552;9.908;2023-08-08T04:05:39;6.57;;;2.10;;
13683;SDS011;6914;53.552;9.908;2023-08-08T04:08:06;9.70;;;2.40;;
13683;SDS011;6914;53.552;9.908;2023-08-08T04:10:34;3.27;;;1.70;;
13683;SDS011;6914;53.552;9.908;2023-08-08T04:13:01;3.03;;;2.47;;
13683;SDS011;6914;53.552;9.908;2023-08-08T04:15:28;6.47;;;1.67;;
13683;SDS011;6914;53.552;9.908;2023-08-08T04:17:57;6.50;;;1.93;;
13683;SDS011;6914;53.552;9.908;2023-08-08T04:20:24;5.43;;;1.93;;
13683;SDS011;6914;53.552;9.908;2023-08-08T04:22:51;3.27;;;1.93;;
13683;SDS011;6914;53.552;9.908;2023-08-08T04:25:18;11.07;;;2.03;;
13683;SDS011;6914;53.552;9.908;2023-08-08T04:27:46;3.53;;;2.20;;
13683;SDS011;6914;53.552;9.908;2023-08-08T04:30:13;2.20;;;2.00;;
13683;SDS011;6914;53.552;9.908;2023-08-08T04:32:40;7.93;;;2.20;;
13683;SDS011;6914;53.552;9.908;2023-08-08T04:35:10;3.67;;;1.93;;
13683;SDS011;6914;53.552;9.908;2023-08-08T04:37:37;2.47;;;2.27;;
13683;SDS011;6914;53.552;9.908;2023-08-08T04:40:05;4.70;;;2.40;;
13683;SDS011;6914;53.552;9.908;2023-08-08T04:42:33;6.00;;;2.27;;
13683;SDS011;6914;53.552;9.908;2023-08-08T04:45:00;8.57;;;1.93;;
13683;SDS011;6914;53.552;9.908;2023-08-08T04:47:27;12.20;;;2.40;;
13683;SDS011;6914;53.552;9.908;2023-08-08T04:49:54;2.40;;;1.60;;
13683;SDS011;6914;53.552;9.908;2023-08-08T04:52:23;5.07;;;2.10;;
13683;SDS011;6914;53.552;9.908;2023-08-08T04:54:50;5.33;;;1.90;;
13683;SDS011;6914;53.552;9.908;2023-08-08T04:57:17;4.40;;;1.70;;
13683;SDS011;6914;53.552;9.908;2023-08-08T04:59:44;3.27;;;1.80;;
13683;SDS011;6914;53.552;9.908;2023-08-08T05:02:11;2.80;;;1.80;;
13683;SDS011;6914;53.552;9.908;2023-08-08T05:04:38;7.97;;;2.13;;
13683;SDS011;6914;53.552;9.908;2023-08-08T05:07:06;8.60;;;2.33;;
13683;SDS011;6914;53.552;9.908;2023-08-08T05:09:34;2.73;;;2.03;;
13683;SDS011;6914;53.552;9.908;2023-08-08T05:12:02;3.53;;;2.17;;
13683;SDS011;6914;53.552;9.908;2023-08-08T05:14:29;1.90;;;1.80;;
13683;SDS011;6914;53.552;9.908;2023-08-08T05:16:56;4.00;;;1.37;;
13683;SDS011;6914;53.552;9.908;2023-08-08T05:19:23;7.13;;;2.07;;
13683;SDS011;6914;53.552;9.908;2023-08-08T05:21:51;5.40;;;2.00;;
13683;SDS011;6914;53.552;9.908;2023-08-08T05:24:18;7.80;;;1.87;;
13683;SDS011;6914;53.552;9.908;2023-08-08T05:26:47;8.30;;;1.87;;
13683;SDS011;6914;53.552;9.908;2023-08-08T05:29:14;4.80;;;1.90;;
13683;SDS011;6914;53.552;9.908;2023-08-08T05:31:41;3.47;;;1.70;;
13683;SDS011;6914;53.552;9.908;2023-08-08T05:34:08;6.33;;;1.63;;
13683;SDS011;6914;53.552;9.908;2023-08-08T05:36:36;6.63;;;1.70;;
13683;SDS011;6914;53.552;9.908;2023-08-08T05:39:03;6.27;;;1.50;;
13683;SDS011;6914;53.552;9.908;2023-08-08T05:41:32;1.87;;;1.57;;
13683;SDS011;6914;53.552;9.908;2023-08-08T05:44:00;5.13;;;1.57;;
13683;SDS011;6914;53.552;9.908;2023-08-08T05:46:27;7.03;;;1.90;;
13683;SDS011;6914;53.552;9.908;2023-08-08T05:48:54;3.40;;;1.50;;
13683;SDS011;6914;53.552;9.908;2023-08-08T05:51:22;2.07;;;1.70;;
13683;SDS011;6914;53.552;9.908;2023-08-08T05:53:49;4.40;;;2.03;;
13683;SDS011;6914;53.552;9.908;2023-08-08T05:56:16;3.60;;;1.43;;
13683;SDS011;6914;53.552;9.908;2023-08-08T05:58:43;4.73;;;1.87;;
13683;SDS011;6914;53.552;9.908;2023-08-08T06:01:12;6.93;;;2.10;;
13683;SDS011;6914;53.552;9.908;2023-08-08T06:03:39;6.23;;;1.93;;
13683;SDS011;6914;53.552;9.908;2023-08-08T06:06:07;2.03;;;1.83;;
13683;SDS011;6914;53.552;9.908;2023-08-08T06:08:34;4.97;;;2.50;;
13683;SDS011;6914;53.552;9.908;2023-08-08T06:11:01;3.63;;;1.90;;
13683;SDS011;6914;53.552;9.908;2023-08-08T06:13:28;3.53;;;2.57;;
13683;SDS011;6914;53.552;9.908;2023-08-08T06:15:56;2.80;;;2.30;;
13683;SDS011;6914;53.552;9.908;2023-08-08T06:18:24;10.23;;;2.30;;
13683;SDS011;6914;53.552;9.908;2023-08-08T06:20:51;2.10;;;1.50;;
13683;SDS011;6914;53.552;9.908;2023-08-08T06:23:18;3.97;;;2.43;;
13683;SDS011;6914;53.552;9.908;2023-08-08T06:25:45;4.87;;;2.53;;
13683;SDS011;6914;53.552;9.908;2023-08-08T06:28:13;5.50;;;2.40;;
13683;SDS011;6914;53.552;9.908;2023-08-08T06:30:40;3.33;;;2.17;;
13683;SDS011;6914;53.552;9.908;2023-08-08T06:33:07;10.70;;;3.10;;
13683;SDS011;6914;53.552;9.908;2023-08-08T06:35:36;7.63;;;2.50;;
13683;SDS011;6914;53.552;9.908;2023-08-08T06:38:03;2.77;;;2.33;;
13683;SDS011;6914;53.552;9.908;2023-08-08T06:40:30;2.50;;;1.70;;
13683;SDS011;6914;53.552;9.908;2023-08-08T06:42:58;1.97;;;1.73;;
13683;SDS011;6914;53.552;9.908;2023-08-08T06:45:25;2.73;;;1.70;;
13683;SDS011;6914;53.552;9.908;2023-08-08T06:47:52;2.30;;;1.63;;
13683;SDS011;6914;53.552;9.908;2023-08-08T06:50:20;4.30;;;2.03;;
13683;SDS011;6914;53.552;9.908;2023-08-08T06:52:51;3.20;;;2.37;;
13683;SDS011;6914;53.552;9.908;2023-08-08T06:55:18;3.67;;;2.03;;
13683;SDS011;6914;53.552;9.908;2023-08-08T06:57:45;4.03;;;1.70;;
13683;SDS011;6914;53.552;9.908;2023-08-08T07:00:13;5.63;;;2.03;;
13683;SDS011;6914;53.552;9.908;2023-08-08T07:02:42;8.53;;;2.60;;
13683;SDS011;6914;53.552;9.908;2023-08-08T07:05:09;8.90;;;1.80;;
13683;SDS011;6914;53.552;9.908;2023-08-08T07:07:37;9.03;;;1.93;;
13683;SDS011;6914;53.552;9.908;2023-08-08T07:10:06;4.87;;;2.00;;
13683;SDS011;6914;53.552;9.908;2023-08-08T07:12:34;1.53;;;1.20;;
13683;SDS011;6914;53.552;9.908;2023-08-08T07:15:06;4.67;;;2.13;;
13683;SDS011;6914;53.552;9.908;2023-08-08T07:17:33;2.10;;;1.47;;
13683;SDS011;6914;53.552;9.908;2023-08-08T07:20:01;5.10;;;1.60;;
13683;SDS011;6914;53.552;9.908;2023-08-08T07:22:28;1.80;;;1.70;;
13683;SDS011;6914;53.552;9.908;2023-08-08T07:24:57;3.43;;;1.10;;
13683;SDS011;6914;53.552;9.908;2023-08-08T07:27:26;4.40;;;1.60;;
13683;SDS011;6914;53.552;9.908;2023-08-08T07:29:53;2.80;;;1.40;;
13683;SDS011;6914;53.552;9.908;2023-08-08T07:32:21;4.00;;;1.40;;
13683;SDS011;6914;53.552;9.908;2023-08-08T07:34:48;3.77;;;1.37;;
13683;SDS011;6914;53.552;9.908;2023-08-08T07:37:15;1.70;;;1.60;;
13683;SDS011;6914;53.552;9.908;2023-08-08T07:39:43;2.70;;;1.27;;
13683;SDS011;6914;53.552;9.908;2023-08-08T07:42:10;5.40;;;2.13;;
13683;SDS011;6914;53.552;9.908;2023-08-08T07:44:39;4.20;;;1.43;;
13683;SDS011;6914;53.552;9.908;2023-08-08T07:47:06;3.90;;;1.83;;
13683;SDS011;6914;53.552;9.908;2023-08-08T07:49:34;3.40;;;1.80;;
13683;SDS011;6914;53.552;9.908;2023-08-08T07:52:01;2.57;;;1.90;;
13683;SDS011;6914;53.552;9.908;2023-08-08T07:54:28;5.00;;;1.63;;
13683;SDS011;6914;53.552;9.908;2023-08-08T07:56:55;1.97;;;1.73;;
13683;SDS011;6914;53.552;9.908;2023-08-08T07:59:23;6.73;;;2.20;;
13683;SDS011;6914;53.552;9.908;2023-08-08T08:01:52;4.43;;;2.07;;
13683;SDS011;6914;53.552;9.908;2023-08-08T08:04:19;6.33;;;1.83;;
13683;SDS011;6914;53.552;9.908;2023-08-08T08:06:46;6.73;;;1.90;;
13683;SDS011;6914;53.552;9.908;2023-08-08T08:09:14;4.70;;;2.17;;
13683;SDS011;6914;53.552;9.908;2023-08-08T08:11:42;10.20;;;2.00;;
13683;SDS011;6914;53.552;9.908;2023-08-08T08:14:10;3.37;;;2.00;;
13683;SDS011;6914;53.552;9.908;2023-08-08T08:16:37;5.13;;;1.83;;
13683;SDS011;6914;53.552;9.908;2023-08-08T08:19:09;2.60;;;1.73;;
13683;SDS011;6914;53.552;9.908;2023-08-08T08:21:37;2.30;;;1.90;;
13683;SDS011;6914;53.552;9.908;2023-08-08T08:24:05;6.90;;;1.70;;
13683;SDS011;6914;53.552;9.908;2023-08-08T08:26:32;2.17;;;1.50;;
13683;SDS011;6914;53.552;9.908;2023-08-08T08:29:00;6.60;;;1.70;;
13683;SDS011;6914;53.552;9.908;2023-08-08T08:31:28;3.73;;;1.97;;
13683;SDS011;6914;53.552;9.908;2023-08-08T08:33:55;10.10;;;2.37;;
13683;SDS011;6914;53.552;9.908;2023-08-08T08:36:24;2.30;;;1.63;;
13683;SDS011;6914;53.552;9.908;2023-08-08T08:38:51;3.00;;;1.40;;
13683;SDS011;6914;53.552;9.908;2023-08-08T08:41:19;3.17;;;2.00;;
13683;SDS011;6914;53.552;9.908;2023-08-08T08:43:48;2.20;;;1.40;;
13683;SDS011;6914;53.552;9.908;2023-08-08T08:46:17;1.10;;;1.10;;
13683;SDS011;6914;53.552;9.908;2023-08-08T08:48:55;3.03;;;1.67;;
13683;SDS011;6914;53.552;9.908;2023-08-08T08:51:26;9.87;;;1.90;;
13683;SDS011;6914;53.552;9.908;2023-08-08T08:53:58;2.00;;;1.33;;
13683;SDS011;6914;53.552;9.908;2023-08-08T08:56:25;5.50;;;1.57;;
13683;SDS011;6914;53.552;9.908;2023-08-08T08:58:53;2.00;;;1.10;;
13683;SDS011;6914;53.552;9.908;2023-08-08T09:01:21;1.97;;;1.30;;
13683;SDS011;6914;53.552;9.908;2023-08-08T09:03:49;5.07;;;1.27;;
13683;SDS011;6914;53.552;9.908;2023-08-08T09:06:20;3.50;;;1.30;;
13683;SDS011;6914;53.552;9.908;2023-08-08T09:08:49;1.00;;;0.90;;
13683;SDS011;6914;53.552;9.908;2023-08-08T09:11:20;3.53;;;1.30;;
13683;SDS011;6914;53.552;9.908;2023-08-08T09:13:48;2.13;;;0.87;;
13683;SDS011;6914;53.552;9.908;2023-08-08T09:16:15;1.83;;;1.13;;
13683;SDS011;6914;53.552;9.908;2023-08-08T09:18:47;1.10;;;1.00;;
13683;SDS011;6914;53.552;9.908;2023-08-08T09:21:15;3.33;;;0.80;;
13683;SDS011;6914;53.552;9.908;2023-08-08T09:23:43;1.93;;;1.23;;
13683;SDS011;6914;53.552;9.908;2023-08-08T09:26:14;1.87;;;1.33;;
13683;SDS011;6914;53.552;9.908;2023-08-08T09:28:42;1.47;;;0.97;;
13683;SDS011;6914;53.552;9.908;2023-08-08T09:31:11;6.20;;;1.43;;
13683;SDS011;6914;53.552;9.908;2023-08-08T09:33:41;1.13;;;1.03;;
13683;SDS011;6914;53.552;9.908;2023-08-08T09:36:14;5.40;;;1.20;;
13683;SDS011;6914;53.552;9.908;2023-08-08T09:38:55;3.40;;;1.37;;
13683;SDS011;6914;53.552;9.908;2023-08-08T09:41:25;1.63;;;1.53;;
13683;SDS011;6914;53.552;9.908;2023-08-08T09:43:53;3.90;;;1.20;;
13683;SDS011;6914;53.552;9.908;2023-08-08T09:46:22;3.27;;;1.10;;
13683;SDS011;6914;53.552;9.908;2023-08-08T09:48:49;3.73;;;1.30;;
13683;SDS011;6914;53.552;9.908;2023-08-08T09:51:17;1.80;;;1.00;;
13683;SDS011;6914;53.552;9.908;2023-08-08T09:53:46;1.40;;;1.30;;
13683;SDS011;6914;53.552;9.908;2023-08-08T09:56:14;2.90;;;1.30;;
13683;SDS011;6914;53.552;9.908;2023-08-08T09:58:44;1.93;;;1.27;;
13683;SDS011;6914;53.552;9.908;2023-08-08T10:01:12;1.30;;;1.20;;
13683;SDS011;6914;53.552;9.908;2023-08-08T10:03:41;2.80;;;1.20;;
13683;SDS011;6914;53.552;9.908;2023-08-08T10:06:10;2.10;;;1.27;;
13683;SDS011;6914;53.552;9.908;2023-08-08T10:08:37;2.77;;;1.40;;
13683;SDS011;6914;53.552;9.908;2023-08-08T10:11:05;7.93;;;1.00;;
13683;SDS011;6914;53.552;9.908;2023-08-08T10:13:34;7.60;;;2.20;;
13683;SDS011;6914;53.552;9.908;2023-08-08T10:16:07;1.30;;;1.20;;
13683;SDS011;6914;53.552;9.908;2023-08-08T10:18:35;3.50;;;1.30;;
13683;SDS011;6914;53.552;9.908;2023-08-08T10:21:03;3.37;;;1.67;;
13683;SDS011;6914;53.552;9.908;2023-08-08T10:23:35;5.33;;;1.37;;
13683;SDS011;6914;53.552;9.908;2023-08-08T10:26:03;2.40;;;1.33;;
13683;SDS011;6914;53.552;9.908;2023-08-08T10:28:31;2.00;;;1.50;;
13683;SDS011;6914;53.552;9.908;2023-08-08T10:31:00;2.27;;;1.13;;
13683;SDS011;6914;53.552;9.908;2023-08-08T10:36:42;8.90;;;1.17;;
13683;SDS011;6914;53.552;9.908;2023-08-08T10:39:11;6.73;;;1.47;;
13683;SDS011;6914;53.552;9.908;2023-08-08T10:41:43;6.77;;;1.13;;
13683;SDS011;6914;53.552;9.908;2023-08-08T10:44:12;4.57;;;1.50;;
13683;SDS011;6914;53.552;9.908;2023-08-08T10:46:40;2.50;;;1.40;;
13683;SDS011;6914;53.552;9.908;2023-08-08T10:49:14;3.80;;;1.57;;
13683;SDS011;6914;53.552;9.908;2023-08-08T10:51:46;4.00;;;1.43;;
13683;SDS011;6914;53.552;9.908;2023-08-08T10:54:15;2.70;;;1.60;;
13683;SDS011;6914;53.552;9.908;2023-08-08T10:56:51;2.70;;;1.10;;
13683;SDS011;6914;53.552;9.908;2023-08-08T10:59:21;4.50;;;1.10;;
13683;SDS011;6914;53.552;9.908;2023-08-08T11:01:49;1.87;;;1.60;;
13683;SDS011;6914;53.552;9.908;2023-08-08T11:04:18;2.30;;;1.00;;
13683;SDS011;6914;53.552;9.908;2023-08-08T11:06:48;4.03;;;1.03;;
13683;SDS011;6914;53.552;9.908;2023-08-08T11:09:17;4.53;;;1.40;;
13683;SDS011;6914;53.552;9.908;2023-08-08T11:11:45;1.20;;;1.00;;
13683;SDS011;6914;53.552;9.908;2023-08-08T11:14:13;5.40;;;1.17;;
13683;SDS011;6914;53.552;9.908;2023-08-08T11:16:55;3.00;;;1.00;;
13683;SDS011;6914;53.552;9.908;2023-08-08T11:19:22;1.93;;;1.10;;
13683;SDS011;6914;53.552;9.908;2023-08-08T11:21:51;0.90;;;0.90;;
13683;SDS011;6914;53.552;9.908;2023-08-08T11:24:21;0.97;;;0.87;;
13683;SDS011;6914;53.552;9.908;2023-08-08T11:26:48;2.10;;;1.00;;
13683;SDS011;6914;53.552;9.908;2023-08-08T11:29:16;3.33;;;1.40;;
13683;SDS011;6914;53.552;9.908;2023-08-08T11:31:47;3.70;;;1.37;;
13683;SDS011;6914;53.552;9.908;2023-08-08T11:34:15;3.70;;;1.20;;
13683;SDS011;6914;53.552;9.908;2023-08-08T11:36:45;1.17;;;1.07;;
13683;SDS011;6914;53.552;9.908;2023-08-08T11:39:15;3.43;;;1.07;;
13683;SDS011;6914;53.552;9.908;2023-08-08T11:41:45;6.53;;;1.40;;
13683;SDS011;6914;53.552;9.908;2023-08-08T11:44:12;2.27;;;1.07;;
13683;SDS011;6914;53.552;9.908;2023-08-08T11:46:44;1.20;;;1.10;;
13683;SDS011;6914;53.552;9.908;2023-08-08T11:49:13;2.30;;;1.30;;
13683;SDS011;6914;53.552;9.908;2023-08-08T11:51:42;1.17;;;0.80;;
13683;SDS011;6914;53.552;9.908;2023-08-08T11:54:09;5.20;;;1.00;;
13683;SDS011;6914;53.552;9.908;2023-08-08T11:56:40;5.20;;;1.13;;
13683;SDS011;6914;53.552;9.908;2023-08-08T11:59:09;1.60;;;1.40;;
13683;SDS011;6914;53.552;9.908;2023-08-08T12:01:51;3.10;;;1.10;;
13683;SDS011;6914;53.552;9.908;2023-08-08T12:04:20;5.13;;;1.30;;
13683;SDS011;6914;53.552;9.908;2023-08-08T12:06:48;4.47;;;1.23;;
13683;SDS011;6914;53.552;9.908;2023-08-08T12:09:15;3.53;;;1.63;;
13683;SDS011;6914;53.552;9.908;2023-08-08T12:11:43;2.40;;;1.33;;
13683;SDS011;6914;53.552;9.908;2023-08-08T12:14:12;1.63;;;1.10;;
13683;SDS011;6914;53.552;9.908;2023-08-08T12:16:40;4.30;;;1.60;;
13683;SDS011;6914;53.552;9.908;2023-08-08T12:19:09;1.23;;;0.93;;
13683;SDS011;6914;53.552;9.908;2023-08-08T12:21:39;1.47;;;1.10;;
13683;SDS011;6914;53.552;9.908;2023-08-08T12:24:06;3.50;;;1.00;;
13683;SDS011;6914;53.552;9.908;2023-08-08T12:26:33;6.10;;;1.10;;
13683;SDS011;6914;53.552;9.908;2023-08-08T12:29:02;2.17;;;1.07;;
13683;SDS011;6914;53.552;9.908;2023-08-08T12:31:29;1.67;;;1.20;;
13683;SDS011;6914;53.552;9.908;2023-08-08T12:33:56;1.77;;;1.27;;
13683;SDS011;6914;53.552;9.908;2023-08-08T12:36:24;4.00;;;1.57;;
13683;SDS011;6914;53.552;9.908;2023-08-08T12:38:51;2.80;;;0.90;;
13683;SDS011;6914;53.552;9.908;2023-08-08T12:41:19;3.63;;;1.50;;
13683;SDS011;6914;53.552;9.908;2023-08-08T12:43:46;2.30;;;1.27;;
13683;SDS011;6914;53.552;9.908;2023-08-08T12:46:16;5.93;;;1.20;;
13683;SDS011;6914;53.552;9.908;2023-08-08T12:48:44;1.30;;;1.20;;
13683;SDS011;6914;53.552;9.908;2023-08-08T12:51:11;1.30;;;1.17;;
13683;SDS011;6914;53.552;9.908;2023-08-08T12:53:39;5.20;;;2.70;;
13683;SDS011;6914;53.552;9.908;2023-08-08T12:56:06;10.70;;;1.60;;
13683;SDS011;6914;53.552;9.908;2023-08-08T12:58:33;2.20;;;1.00;;
13683;SDS011;6914;53.552;9.908;2023-08-08T13:01:00;4.30;;;1.40;;
13683;SDS011;6914;53.552;9.908;2023-08-08T13:03:28;2.60;;;1.17;;
13683;SDS011;6914;53.552;9.908;2023-08-08T13:05:59;5.23;;;1.63;;
13683;SDS011;6914;53.552;9.908;2023-08-08T13:08:26;6.63;;;2.13;;
13683;SDS011;6914;53.552;9.908;2023-08-08T13:10:54;7.00;;;2.20;;
13683;SDS011;6914;53.552;9.908;2023-08-08T13:13:21;6.40;;;2.13;;
13683;SDS011;6914;53.552;9.908;2023-08-08T13:15:51;9.33;;;2.17;;
13683;SDS011;6914;53.552;9.908;2023-08-08T13:18:21;7.70;;;2.47;;
13683;SDS011;6914;53.552;9.908;2023-08-08T13:20:50;8.50;;;2.23;;
13683;SDS011;6914;53.552;9.908;2023-08-08T13:23:18;7.00;;;2.60;;
13683;SDS011;6914;53.552;9.908;2023-08-08T13:25:46;11.17;;;2.10;;
13683;SDS011;6914;53.552;9.908;2023-08-08T13:28:17;9.07;;;1.97;;
13683;SDS011;6914;53.552;9.908;2023-08-08T13:30:45;10.80;;;2.53;;
13683;SDS011;6914;53.552;9.908;2023-08-08T13:33:12;8.57;;;1.90;;
13683;SDS011;6914;53.552;9.908;2023-08-08T13:35:39;6.37;;;2.63;;
13683;SDS011;6914;53.552;9.908;2023-08-08T13:38:08;11.60;;;2.30;;
13683;SDS011;6914;53.552;9.908;2023-08-08T13:40:39;5.97;;;2.70;;
13683;SDS011;6914;53.552;9.908;2023-08-08T13:43:06;20.90;;;2.23;;
13683;SDS011;6914;53.552;9.908;2023-08-08T13:45:34;7.50;;;2.50;;
13683;SDS011;6914;53.552;9.908;2023-08-08T13:48:03;19.43;;;1.73;;
13683;SDS011;6914;53.552;9.908;2023-08-08T13:50:31;7.87;;;1.73;;
13683;SDS011;6914;53.552;9.908;2023-08-08T13:53:14;9.07;;;1.93;;
13683;SDS011;6914;53.552;9.908;2023-08-08T13:55:41;4.93;;;1.23;;
13683;SDS011;6914;53.552;9.908;2023-08-08T13:58:10;5.60;;;1.37;;
13683;SDS011;6914;53.552;9.908;2023-08-08T14:00:40;10.63;;;1.77;;
13683;SDS011;6914;53.552;9.908;2023-08-08T14:03:08;3.63;;;1.33;;
13683;SDS011;6914;53.552;9.908;2023-08-08T14:05:38;3.00;;;1.60;;
13683;SDS011;6914;53.552;9.908;2023-08-08T14:08:09;3.93;;;1.57;;
13683;SDS011;6914;53.552;9.908;2023-08-08T14:10:39;9.33;;;2.23;;
13683;SDS011;6914;53.552;9.908;2023-08-08T14:13:06;6.57;;;1.60;;
13683;SDS011;6914;53.552;9.908;2023-08-08T14:15:34;7.73;;;1.30;;
13683;SDS011;6914;53.552;9.908;2023-08-08T14:18:01;3.63;;;1.47;;
13683;SDS011;6914;53.552;9.908;2023-08-08T14:20:28;9.20;;;1.43;;
13683;SDS011;6914;53.552;9.908;2023-08-08T14:22:56;5.10;;;1.80;;
13683;SDS011;6914;53.552;9.908;2023-08-08T14:25:26;10.00;;;1.80;;
13683;SDS011;6914;53.552;9.908;2023-08-08T14:27:56;2.93;;;1.70;;
13683;SDS011;6914;53.552;9.908;2023-08-08T14:30:23;12.43;;;2.00;;
13683;SDS011;6914;53.552;9.908;2023-08-08T14:32:52;5.33;;;1.60;;
13683;SDS011;6914;53.552;9.908;2023-08-08T14:35:20;11.13;;;2.60;;
13683;SDS011;6914;53.552;9.908;2023-08-08T14:37:47;5.97;;;2.17;;
13683;SDS011;6914;53.552;9.908;2023-08-08T14:40:14;12.80;;;2.30;;
13683;SDS011;6914;53.552;9.908;2023-08-08T14:42:41;8.37;;;2.00;;
13683;SDS011;6914;53.552;9.908;2023-08-08T14:45:10;7.43;;;1.63;;
13683;SDS011;6914;53.552;9.908;2023-08-08T14:47:37;7.40;;;1.50;;
13683;SDS011;6914;53.552;9.908;2023-08-08T14:50:05;3.30;;;1.70;;
13683;SDS011;6914;53.552;9.908;2023-08-08T14:52:35;6.33;;;1.57;;
13683;SDS011;6914;53.552;9.908;2023-08-08T14:55:03;3.50;;;1.30;;
13683;SDS011;6914;53.552;9.908;2023-08-08T14:57:30;9.83;;;1.70;;
13683;SDS011;6914;53.552;9.908;2023-08-08T14:59:57;15.20;;;1.80;;
13683;SDS011;6914;53.552;9.908;2023-08-08T15:02:27;2.90;;;1.50;;
13683;SDS011;6914;53.552;9.908;2023-08-08T15:04:54;5.17;;;1.67;;
13683;SDS011;6914;53.552;9.908;2023-08-08T15:07:21;6.67;;;1.67;;
13683;SDS011;6914;53.552;9.908;2023-08-08T15:09:51;6.53;;;1.40;;